| Date | Time | Temp. (oF) | Dew Point (oF) | Rel. Hum. (%) | Press. (in.) | Wind Dir. | Wind Speed (mph) | Hourly Rainfall (in.) |
|
|---|---|---|---|---|---|---|---|---|---|
| 1 | 06/08 | 00:00 | 58 | 51 | 80 | 29.98 | W | 0 | 0.00 |
| 2 | 06/07 | 23:00 | 61 | 51 | 72 | 29.97 | WSW | 0 | 0.00 |
| 3 | 06/07 | 22:00 | 63 | 49 | 62 | 29.95 | NW | 0 | 0.00 |
| 4 | 06/07 | 21:00 | 67 | 48 | 52 | 29.93 | NW | 0 | 0.00 |
| 5 | 06/07 | 20:00 | 71 | 49 | 46 | 29.91 | N | 3 | 0.00 |
| 6 | 06/07 | 19:00 | 73 | 49 | 44 | 29.89 | WNW | 3 | 0.00 |
| 7 | 06/07 | 18:00 | 73 | 49 | 43 | 29.89 | N | 6 | 0.00 |
| 8 | 06/07 | 17:00 | 74 | 49 | 43 | 29.88 | NW | 3 | 0.00 |
| 9 | 06/07 | 16:00 | 74 | 49 | 42 | 29.88 | W | 5 | 0.00 |
| 10 | 06/07 | 15:00 | 73 | 50 | 45 | 29.89 | NNW | 6 | 0.00 |
| 11 | 06/07 | 14:00 | 74 | 51 | 46 | 29.88 | WNW | 7 | 0.00 |
| 12 | 06/07 | 13:00 | 72 | 50 | 47 | 29.88 | WNW | 10 | 0.00 |
| 13 | 06/07 | 12:00 | 70 | 49 | 49 | 29.88 | NNW | 2 | 0.00 |
| 14 | 06/07 | 11:00 | 69 | 49 | 50 | 29.88 | NW | 2 | 0.00 |
| 15 | 06/07 | 10:00 | 67 | 49 | 53 | 29.88 | N | 3 | 0.00 |
| 16 | 06/07 | 09:00 | 65 | 50 | 60 | 29.88 | NNW | 3 | 0.00 |
| 17 | 06/07 | 08:00 | 61 | 50 | 68 | 29.86 | NNW | 7 | 0.00 |
| 18 | 06/07 | 07:00 | 57 | 50 | 78 | 29.85 | NNW | 2 | 0.00 |
| 19 | 06/07 | 06:00 | 53 | 47 | 83 | 29.83 | NNW | 0 | 0.00 |
| 20 | 06/07 | 05:00 | 56 | 48 | 77 | 29.82 | NNW | 0 | 0.00 |
| 21 | 06/07 | 04:00 | 58 | 49 | 72 | 29.79 | N | 0 | 0.00 |
| 22 | 06/07 | 03:00 | 60 | 49 | 68 | 29.77 | N | 3 | 0.00 |
| 23 | 06/07 | 02:00 | 62 | 51 | 69 | 29.76 | NNW | 2 | 0.00 |
| 24 | 06/07 | 01:00 | 62 | 51 | 68 | 29.74 | NNW | 0 | 0.00 |